Time;durP1;ratioP1;P1;durP2;ratioP2;P2;SDS_P1;SDS_P2;PMS_P1;PMS_P2;Temp;Humidity;BMP_temperature;BMP_pressure;BME280_temperature;BME280_humidity;BME280_pressure;Samples;Min_cycle;Max_cycle;Signal;HPM_P1;HPM_P2
2022/03/30 00:00:43;;;;;;;22.30;11.27;;;;;;;15.43;48.61;100332.97;4920506;29;20107;-72
2022/03/30 00:03:29;;;;;;;20.20;11.27;;;;;;;15.70;48.38;100339.66;4920815;29;20024;-72
2022/03/30 00:06:15;;;;;;;24.05;11.70;;;;;;;15.78;48.45;100335.75;4921066;29;20028;-72
2022/03/30 00:09:00;;;;;;;20.52;10.98;;;;;;;15.94;47.83;100335.91;4921357;29;20035;-72
2022/03/30 00:11:46;;;;;;;20.95;11.35;;;;;;;16.00;48.42;100340.94;4920046;29;20457;-71
2022/03/30 00:14:32;;;;;;;19.80;11.50;;;;;;;15.72;48.40;100345.75;4920671;29;20056;-72
2022/03/30 00:17:18;;;;;;;24.83;11.70;;;;;;;15.66;48.91;100341.59;4920341;29;20032;-71
2022/03/30 00:20:04;;;;;;;21.45;11.45;;;;;;;16.05;48.10;100338.94;4921251;29;20067;-71
2022/03/30 00:22:50;;;;;;;24.00;11.05;;;;;;;15.84;48.55;100337.28;4920874;29;20031;-72
2022/03/30 00:25:36;;;;;;;21.48;10.75;;;;;;;16.01;48.55;100332.94;4920846;29;20118;-71
2022/03/30 00:28:23;;;;;;;20.25;10.90;;;;;;;15.66;49.11;100336.28;4920267;29;20136;-72
2022/03/30 00:31:11;;;;;;;15.95;10.13;;;;;;;15.50;49.08;100331.75;4919878;29;20087;-72
2022/03/30 00:33:57;;;;;;;23.30;11.30;;;;;;;15.72;49.06;100337.81;4906361;29;20028;-72
2022/03/30 00:36:43;;;;;;;19.75;10.43;;;;;;;15.63;48.91;100338.22;4906830;29;20099;-71
2022/03/30 00:39:28;;;;;;;20.38;10.82;;;;;;;15.59;49.07;100339.28;4920499;29;20040;-71
2022/03/30 00:42:19;;;;;;;19.05;10.30;;;;;;;15.68;49.53;100338.88;4920620;29;20441;-72
2022/03/30 00:45:09;;;;;;;18.15;10.68;;;;;;;15.63;49.25;100335.59;4919645;29;20458;-71
2022/03/30 00:47:54;;;;;;;17.17;11.13;;;;;;;15.34;49.75;100333.31;4919971;29;20084;-72
2022/03/30 00:50:40;;;;;;;23.13;11.10;;;;;;;15.16;50.38;100332.31;4906542;29;20043;-72
2022/03/30 00:53:26;;;;;;;20.25;11.60;;;;;;;15.05;50.75;100331.03;4919724;29;20036;-73
2022/03/30 00:56:12;;;;;;;19.92;11.02;;;;;;;14.86;51.41;100327.47;4920038;29;20024;-72
2022/03/30 00:59:00;;;;;;;27.02;10.98;;;;;;;15.05;51.57;100325.75;4919614;29;20032;-72
2022/03/30 01:01:46;;;;;;;20.23;10.73;;;;;;;15.23;50.88;100317.91;4919976;29;20369;-72
2022/03/30 01:04:32;;;;;;;17.13;10.27;;;;;;;15.23;50.96;100320.56;4919553;29;20130;-72
2022/03/30 01:07:17;;;;;;;19.88;11.00;;;;;;;15.01;51.48;100317.13;4919912;29;20491;-72
2022/03/30 01:10:04;;;;;;;17.50;10.27;;;;;;;15.06;51.49;100319.59;4919673;29;20103;-71
2022/03/30 01:12:52;;;;;;;20.23;10.90;;;;;;;15.12;51.27;100319.31;4919485;29;20032;-72
2022/03/30 01:15:38;;;;;;;17.90;10.73;;;;;;;15.12;51.25;100312.25;4905104;29;20048;-72
2022/03/30 01:18:24;;;;;;;27.60;11.43;;;;;;;15.00;51.48;100311.91;4906389;29;20063;-73
2022/03/30 01:21:10;;;;;;;18.60;11.27;;;;;;;15.12;51.73;100308.75;4919796;29;20441;-73
2022/03/30 01:23:56;;;;;;;18.40;10.70;;;;;;;14.98;51.74;100311.13;4905306;29;20059;-71
2022/03/30 01:26:42;;;;;;;17.38;10.50;;;;;;;14.90;51.91;100316.69;4919867;29;20039;-72
2022/03/30 01:32:34;;;;;;;17.35;11.40;;;;;;;14.96;52.36;100310.31;4919680;29;20043;-72
2022/03/30 01:35:20;;;;;;;19.20;10.35;;;;;;;15.26;51.42;100306.41;4919546;29;20024;-72
2022/03/30 01:38:06;;;;;;;20.30;11.55;;;;;;;15.16;51.92;100313.84;4919475;29;20040;-71
2022/03/30 01:40:52;;;;;;;17.08;10.80;;;;;;;15.29;51.37;100312.41;4919022;29;20103;-72
2022/03/30 01:43:38;;;;;;;20.30;10.45;;;;;;;15.20;51.84;100315.44;4905429;29;20028;-71
2022/03/30 01:46:24;;;;;;;21.55;11.82;;;;;;;15.19;51.86;100310.22;4919009;29;20115;-71
2022/03/30 01:49:10;;;;;;;25.67;12.45;;;;;;;14.97;52.44;100320.81;4905976;29;20107;-72
2022/03/30 01:51:58;;;;;;;24.05;11.68;;;;;;;15.25;51.61;100313.44;4905206;29;20095;-71
2022/03/30 01:54:44;;;;;;;22.40;11.45;;;;;;;15.06;51.87;100327.50;4919554;29;20397;-72
2022/03/30 01:57:30;;;;;;;22.55;11.88;;;;;;;14.78;52.75;100319.84;4919392;29;20032;-71
2022/03/30 02:00:17;;;;;;;22.05;12.57;;;;;;;14.64;53.27;100322.19;4918975;29;20032;-72
2022/03/30 02:03:03;;;;;;;22.40;13.07;;;;;;;14.94;52.72;100317.44;4905467;29;20421;-71
2022/03/30 02:05:49;;;;;;;26.40;13.68;;;;;;;14.87;53.06;100318.63;4905596;29;20032;-71
2022/03/30 02:08:35;;;;;;;29.42;14.55;;;;;;;15.01;52.65;100329.44;4905353;29;20048;-71
2022/03/30 02:11:21;;;;;;;20.65;13.52;;;;;;;15.08;52.73;100325.63;4905263;29;20128;-71
2022/03/30 02:14:07;;;;;;;22.00;14.43;;;;;;;14.83;53.26;100325.78;4918130;29;20048;-71
2022/03/30 02:16:53;;;;;;;25.92;14.55;;;;;;;14.77;53.44;100328.69;4920309;29;20100;-71
2022/03/30 02:19:38;;;;;;;27.08;15.25;;;;;;;14.66;53.82;100329.13;4920857;29;20036;-71
2022/03/30 02:22:25;;;;;;;24.88;14.38;;;;;;;14.79;53.34;100324.19;4918522;29;20059;-71
2022/03/30 02:25:10;;;;;;;21.90;14.68;;;;;;;14.88;53.14;100328.25;4918863;29;20032;-72
2022/03/30 02:27:56;;;;;;;24.10;14.40;;;;;;;14.79;53.12;100332.09;4921236;29;20028;-70
2022/03/30 02:30:42;;;;;;;24.67;14.32;;;;;;;14.62;53.84;100324.88;4923089;29;20429;-71
2022/03/30 02:33:27;;;;;;;25.40;15.45;;;;;;;14.86;53.33;100332.75;4922944;29;20064;-71
2022/03/30 02:36:14;;;;;;;25.33;15.27;;;;;;;14.88;53.59;100330.88;4908643;29;20468;-72
2022/03/30 02:38:59;;;;;;;27.75;15.60;;;;;;;14.80;53.46;100341.75;4922993;29;20430;-72
2022/03/30 02:41:46;;;;;;;28.33;15.13;;;;;;;14.73;53.82;100340.28;4922063;29;20067;-72
2022/03/30 02:44:32;;;;;;;30.30;15.10;;;;;;;14.64;53.77;100330.94;4922174;29;20442;-70
2022/03/30 02:48:17;;;;;;;24.77;14.07;;;;;;;14.97;53.23;100338.41;4922058;29;20172;-72
2022/03/30 02:50:23;;;;;;;23.55;14.65;;;;;;;14.71;53.64;100337.69;4922040;29;20135;-72
2022/03/30 02:53:09;;;;;;;21.77;13.93;;;;;;;14.49;54.36;100339.47;4921872;29;20062;-72
2022/03/30 02:55:56;;;;;;;25.48;14.40;;;;;;;14.69;53.92;100344.81;4922625;29;20039;-73
2022/03/30 02:58:41;;;;;;;25.63;15.05;;;;;;;14.91;53.66;100355.34;4921837;29;20032;-71
2022/03/30 03:01:27;;;;;;;23.95;14.38;;;;;;;14.67;53.76;100346.66;4922638;29;20086;-71
2022/03/30 03:04:13;;;;;;;22.92;14.35;;;;;;;14.48;54.40;100352.72;4922303;29;20036;-72
2022/03/30 03:06:59;;;;;;;24.38;14.93;;;;;;;14.34;54.86;100355.88;4922641;29;20028;-71
2022/03/30 03:09:45;;;;;;;26.65;14.93;;;;;;;14.52;54.87;100354.31;4922646;29;20047;-72
2022/03/30 03:12:31;;;;;;;21.85;14.70;;;;;;;14.40;55.21;100360.06;4921853;29;20370;-72
2022/03/30 03:15:17;;;;;;;27.00;15.43;;;;;;;14.46;54.92;100367.72;4921696;29;20111;-72
2022/03/30 03:18:04;;;;;;;26.08;15.05;;;;;;;14.21;56.04;100370.44;4908214;29;20058;-72
2022/03/30 03:20:50;;;;;;;21.23;14.00;;;;;;;14.53;55.18;100369.22;4921702;29;20450;-72
2022/03/30 03:23:36;;;;;;;24.15;15.38;;;;;;;14.59;54.71;100369.81;4921359;29;20046;-72
2022/03/30 03:26:21;;;;;;;25.30;15.23;;;;;;;14.08;56.19;100374.44;4921970;29;20468;-73
2022/03/30 03:29:07;;;;;;;27.08;15.50;;;;;;;14.15;56.55;100378.53;4921282;29;20028;-72
2022/03/30 03:31:53;;;;;;;26.10;15.75;;;;;;;13.91;57.15;100379.44;4921922;29;20032;-71
2022/03/30 03:34:38;;;;;;;26.10;16.30;;;;;;;14.09;57.32;100370.88;4921824;28;20386;-71
2022/03/30 03:37:24;;;;;;;32.85;17.27;;;;;;;14.04;57.07;100367.56;4921366;29;20131;-72
2022/03/30 03:40:10;;;;;;;27.90;16.73;;;;;;;14.05;56.97;100373.66;4906744;29;20042;-71
2022/03/30 03:42:57;;;;;;;30.10;17.85;;;;;;;13.94;57.79;100371.44;4907726;29;20055;-72
2022/03/30 03:45:43;;;;;;;34.40;17.73;;;;;;;14.31;57.17;100369.16;4921021;29;20036;-72
2022/03/30 03:48:29;;;;;;;27.77;17.15;;;;;;;14.18;57.04;100373.16;4921866;29;20016;-71
2022/03/30 03:51:15;;;;;;;29.17;16.90;;;;;;;14.41;56.43;100378.47;4920690;29;20070;-71
2022/03/30 03:54:00;;;;;;;29.40;17.25;;;;;;;14.34;56.67;100376.97;4907114;29;20032;-72
2022/03/30 03:56:47;;;;;;;26.48;16.73;;;;;;;14.10;56.86;100376.97;4922049;29;20466;-73
2022/03/30 03:59:33;;;;;;;26.27;16.23;;;;;;;14.05;57.29;100377.16;4920689;29;20478;-72
2022/03/30 04:02:19;;;;;;;28.85;16.25;;;;;;;13.79;58.17;100379.88;4907926;29;20074;-72
2022/03/30 04:05:05;;;;;;;26.85;16.73;;;;;;;13.99;58.08;100387.06;4921307;29;20040;-72
2022/03/30 04:07:51;;;;;;;29.98;16.90;;;;;;;14.11;57.78;100382.19;4920957;29;20039;-72
2022/03/30 04:10:37;;;;;;;26.40;16.08;;;;;;;13.81;58.00;100377.19;4907214;29;20461;-73
2022/03/30 04:13:25;;;;;;;30.23;17.45;;;;;;;14.06;57.42;100383.28;4906560;29;20063;-72
2022/03/30 04:16:11;;;;;;;28.15;17.27;;;;;;;14.15;57.80;100375.91;4920984;29;20039;-71
2022/03/30 04:18:56;;;;;;;32.03;17.58;;;;;;;14.27;57.17;100382.53;4921318;29;20035;-73
2022/03/30 04:21:43;;;;;;;28.73;17.73;;;;;;;14.29;57.00;100380.69;4920816;29;20043;-73
2022/03/30 04:24:29;;;;;;;28.92;17.80;;;;;;;14.55;56.63;100372.66;4920795;29;20417;-72
2022/03/30 04:27:14;;;;;;;29.60;16.92;;;;;;;14.46;56.67;100387.03;4921548;29;20024;-72
2022/03/30 04:30:01;;;;;;;29.10;16.33;;;;;;;14.45;56.13;100390.59;4907204;29;20032;-72
2022/03/30 04:32:47;;;;;;;29.10;17.42;;;;;;;14.62;56.04;100388.16;4920914;29;20028;-73
2022/03/30 04:35:32;;;;;;;33.25;18.17;;;;;;;14.13;57.14;100385.66;4920137;29;20039;-72
2022/03/30 04:38:18;;;;;;;28.23;16.88;;;;;;;14.30;57.03;100396.44;4907335;29;20429;-71
2022/03/30 04:41:04;;;;;;;28.83;17.08;;;;;;;14.44;56.62;100395.94;4906836;29;20028;-71
2022/03/30 04:43:50;;;;;;;28.15;16.48;;;;;;;14.53;56.47;100385.91;4920313;29;20028;-73
2022/03/30 04:46:35;;;;;;;27.58;17.02;;;;;;;14.66;56.13;100386.25;4920052;29;20027;-73
2022/03/30 04:49:21;;;;;;;36.38;17.55;;;;;;;14.20;57.24;100384.47;4906858;29;20028;-72
2022/03/30 04:52:08;;;;;;;26.83;17.17;;;;;;;14.65;56.25;100385.41;4905195;29;20032;-72
2022/03/30 04:54:54;;;;;;;28.23;17.27;;;;;;;14.56;55.98;100391.03;4919990;29;20060;-73
2022/03/30 04:57:40;;;;;;;35.72;18.58;;;;;;;14.46;56.41;100394.06;4919708;29;20040;-73
2022/03/30 05:00:26;;;;;;;30.42;16.58;;;;;;;14.34;56.85;100394.53;4920866;29;20024;-72
2022/03/30 05:03:12;;;;;;;30.95;17.52;;;;;;;14.55;56.41;100391.13;4920060;29;20035;-72
2022/03/30 05:05:59;;;;;;;31.17;17.15;;;;;;;14.53;56.81;100406.13;4919603;29;20070;-71
2022/03/30 05:08:44;;;;;;;29.13;17.15;;;;;;;14.59;56.69;100398.81;4906318;29;20201;-72
2022/03/30 05:11:31;;;;;;;30.58;17.23;;;;;;;14.75;56.56;100407.84;4905565;29;20516;-72
2022/03/30 05:14:23;;;;;;;29.65;17.58;;;;;;;15.09;55.29;100410.00;5071689;28;20375;-72
2022/03/30 05:17:09;;;;;;;27.75;17.17;;;;;;;15.08;55.61;100407.44;5071033;28;20040;-72
2022/03/30 05:19:55;;;;;;;35.22;17.02;;;;;;;15.10;55.18;100413.53;5072942;28;20141;-72
2022/03/30 05:22:41;;;;;;;35.63;17.15;;;;;;;15.10;54.81;100419.63;5071031;28;20032;-72
2022/03/30 05:25:27;;;;;;;39.08;17.83;;;;;;;15.27;54.55;100413.69;5071538;28;20029;-72
2022/03/30 05:28:13;;;;;;;35.45;17.90;;;;;;;15.25;54.70;100408.47;5070083;28;20032;-72
2022/03/30 05:30:59;;;;;;;27.13;15.75;;;;;;;14.74;55.77;100407.91;5070669;28;20082;-71
2022/03/30 05:33:44;;;;;;;29.15;15.63;;;;;;;15.02;55.37;100416.44;5071885;28;20097;-72
2022/03/30 05:36:30;;;;;;;37.10;18.35;;;;;;;15.11;55.43;100417.88;5070864;28;20111;-72
2022/03/30 05:39:16;;;;;;;27.58;17.02;;;;;;;15.27;55.08;100416.31;5071491;28;20066;-72
2022/03/30 05:42:03;;;;;;;28.83;16.80;;;;;;;15.09;55.39;100420.56;5070504;28;20051;-72
2022/03/30 05:44:49;;;;;;;31.05;17.90;;;;;;;15.20;55.44;100422.75;5070878;28;20101;-72
2022/03/30 05:47:35;;;;;;;37.53;20.00;;;;;;;15.40;55.26;100417.56;5070209;28;20032;-72
2022/03/30 05:50:23;;;;;;;34.55;19.48;;;;;;;15.42;55.40;100411.28;5070904;28;20103;-73
2022/03/30 05:53:09;;;;;;;35.00;18.52;;;;;;;15.51;55.82;100420.63;5071195;28;20025;-72
2022/03/30 05:55:55;;;;;;;32.63;18.98;;;;;;;15.34;55.80;100413.34;5070042;28;20445;-73
2022/03/30 05:58:41;;;;;;;37.40;18.42;;;;;;;15.56;55.46;100419.50;5071655;28;20029;-73
2022/03/30 06:01:27;;;;;;;32.58;18.98;;;;;;;15.87;54.92;100409.31;5070396;28;20090;-73
2022/03/30 06:04:12;;;;;;;30.92;16.88;;;;;;;15.84;54.63;100406.81;5070083;28;20078;-73
2022/03/30 06:07:00;;;;;;;32.13;16.95;;;;;;;15.87;55.18;100416.41;5070635;28;20433;-72
2022/03/30 06:09:46;;;;;;;36.00;17.40;;;;;;;16.13;55.29;100413.44;5070409;28;20127;-72
2022/03/30 06:12:31;;;;;;;33.53;16.88;;;;;;;16.04;54.76;100419.97;5070197;28;20045;-72
2022/03/30 06:15:17;;;;;;;30.52;16.55;;;;;;;15.88;54.29;100418.97;5070327;28;20142;-72
2022/03/30 06:18:10;;;;;;;30.17;16.13;;;;;;;16.05;54.29;100408.50;5069976;28;20053;-71
2022/03/30 06:20:56;;;;;;;30.48;16.63;;;;;;;16.19;54.20;100415.84;5070572;28;20043;-72
2022/03/30 06:23:42;;;;;;;28.77;17.02;;;;;;;16.66;53.36;100420.69;5069075;28;20024;-72
2022/03/30 06:26:28;;;;;;;31.60;16.60;;;;;;;17.07;52.67;100416.03;5057227;28;20356;-71
2022/03/30 06:29:14;;;;;;;26.90;15.43;;;;;;;16.63;52.60;100412.88;5057735;28;20025;-73
2022/03/30 06:32:01;;;;;;;28.98;16.30;;;;;;;16.65;53.54;100416.31;5057156;28;20068;-72
2022/03/30 06:34:46;;;;;;;27.88;16.13;;;;;;;17.10;52.17;100413.25;5057765;28;20029;-72
2022/03/30 06:37:32;;;;;;;32.28;16.35;;;;;;;17.04;52.00;100425.00;5058346;28;20453;-72
2022/03/30 06:40:18;;;;;;;24.75;15.65;;;;;;;17.54;51.57;100412.81;5056530;28;20114;-71
2022/03/30 06:43:04;;;;;;;26.65;14.75;;;;;;;17.93;50.26;100413.38;5056645;28;20059;-73
2022/03/30 06:45:50;;;;;;;38.50;16.17;;;;;;;17.69;49.98;100419.13;5055572;28;20056;-72
2022/03/30 06:48:36;;;;;;;35.83;16.25;;;;;;;17.42;50.31;100418.72;5057338;28;20410;-72
2022/03/30 06:51:22;;;;;;;29.92;15.65;;;;;;;17.60;49.76;100420.44;5055340;28;20037;-73
2022/03/30 06:54:10;;;;;;;27.13;15.45;;;;;;;17.52;49.88;100416.47;5055899;28;20021;-73
2022/03/30 06:56:59;;;;;;;24.23;15.10;;;;;;;17.90;48.95;100412.69;5056230;28;20021;-72
2022/03/30 06:59:45;;;;;;;28.95;15.70;;;;;;;17.79;48.58;100421.22;5055166;28;20085;-72
2022/03/30 07:02:33;;;;;;;25.08;14.70;;;;;;;18.15;48.41;100419.28;5057340;28;20017;-72
2022/03/30 07:05:19;;;;;;;24.95;14.88;;;;;;;18.04;48.86;100420.78;5062183;28;20025;-73
2022/03/30 07:11:09;;;;;;;24.38;15.68;;;;;;;18.50;47.69;100414.78;5056452;28;20453;-72
2022/03/30 07:13:57;;;;;;;28.88;15.20;;;;;;;18.23;47.47;100417.09;5055569;28;20114;-72
2022/03/30 07:16:42;;;;;;;22.25;14.02;;;;;;;18.31;47.29;100411.38;5055733;28;20043;-72
2022/03/30 07:19:31;;;;;;;25.23;14.38;;;;;;;18.01;48.21;100410.34;5055238;28;20039;-71
2022/03/30 07:22:20;;;;;;;24.90;14.07;;;;;;;18.63;47.30;100418.47;5056735;28;20017;-72
2022/03/30 07:25:06;;;;;;;25.25;14.55;;;;;;;19.04;46.48;100425.84;5057076;28;20086;-72
2022/03/30 07:27:54;;;;;;;24.23;14.57;;;;;;;18.79;46.25;100414.88;5056775;28;20067;-71
2022/03/30 07:30:39;;;;;;;26.45;16.05;;;;;;;19.24;46.01;100413.25;5057030;28;20043;-71
2022/03/30 07:33:25;;;;;;;25.88;15.55;;;;;;;18.98;45.86;100422.69;5055195;28;20090;-72
2022/03/30 07:36:11;;;;;;;26.77;14.93;;;;;;;19.04;45.83;100415.22;5054937;28;20504;-71
2022/03/30 07:38:57;;;;;;;28.35;16.60;;;;;;;19.56;45.08;100420.22;5056885;28;20021;-72
2022/03/30 07:41:44;;;;;;;28.45;15.10;;;;;;;19.82;44.58;100425.69;5055686;28;20108;-72
2022/03/30 07:44:31;;;;;;;24.90;15.63;;;;;;;19.83;44.29;100429.19;5056173;28;20314;-73
2022/03/30 07:47:17;;;;;;;27.40;14.40;;;;;;;19.95;43.43;100426.66;5055024;28;20029;-71
2022/03/30 07:50:05;;;;;;;25.45;14.63;;;;;;;20.16;43.55;100437.81;5055436;28;20028;-71
2022/03/30 07:52:50;;;;;;;27.52;14.45;;;;;;;20.45;42.66;100431.59;5054960;28;20025;-72
2022/03/30 07:55:38;;;;;;;25.27;14.68;;;;;;;20.25;42.63;100434.63;5055233;28;20029;-71
2022/03/30 07:58:25;;;;;;;24.02;14.02;;;;;;;20.59;42.06;100432.44;5055583;28;20373;-71
2022/03/30 08:01:11;;;;;;;30.70;14.32;;;;;;;20.71;41.55;100433.44;5054714;28;20044;-71
2022/03/30 08:03:57;;;;;;;22.63;14.18;;;;;;;21.10;41.05;100434.44;5055008;28;20017;-74
2022/03/30 08:06:43;;;;;;;24.55;14.38;;;;;;;20.92;41.02;100426.78;5055471;28;20021;-72
2022/03/30 08:09:28;;;;;;;43.15;15.20;;;;;;;20.89;41.13;100430.47;5054891;28;20071;-71
2022/03/30 08:12:15;;;;;;;24.23;15.23;;;;;;;20.67;41.32;100435.47;5054488;28;20058;-72
2022/03/30 08:15:01;;;;;;;36.30;18.67;;;;;;;20.91;40.90;100438.38;5055145;28;20108;-71
2022/03/30 08:17:46;;;;;;;24.48;13.45;;;;;;;20.94;40.98;100432.88;5053621;28;20025;-71
2022/03/30 08:23:37;;;;;;;23.40;13.68;;;;;;;21.30;39.59;100431.31;5054904;28;20438;-72
2022/03/30 08:26:23;;;;;;;22.23;13.48;;;;;;;21.57;39.29;100433.97;5055107;28;20021;-71
2022/03/30 08:29:10;;;;;;;25.45;15.20;;;;;;;21.39;39.76;100437.88;5055491;28;20017;-73
2022/03/30 08:31:55;;;;;;;23.52;13.25;;;;;;;22.00;38.58;100432.81;5055090;28;20028;-72
2022/03/30 08:34:42;;;;;;;25.02;13.52;;;;;;;22.23;38.22;100430.25;5054875;28;20044;-74
2022/03/30 08:37:28;;;;;;;26.70;13.10;;;;;;;21.97;38.30;100428.53;5054505;28;20140;-74
2022/03/30 08:40:17;;;;;;;22.75;12.00;;;;;;;22.28;37.68;100425.47;5055466;28;20127;-74
2022/03/30 08:43:04;;;;;;;25.38;12.68;;;;;;;22.75;37.32;100422.13;5054448;28;20107;-73
2022/03/30 08:45:49;;;;;;;21.55;12.77;;;;;;;22.84;37.16;100422.31;5055175;28;20025;-73
2022/03/30 08:48:35;;;;;;;26.15;12.45;;;;;;;22.58;37.27;100419.78;5054778;28;20389;-72
2022/03/30 08:51:22;;;;;;;21.00;12.73;;;;;;;22.54;37.36;100413.81;5054358;28;20503;-73
2022/03/30 08:54:12;;;;;;;24.13;12.80;;;;;;;22.80;37.62;100409.28;5054006;28;20028;-70
2022/03/30 08:56:58;;;;;;;25.67;13.40;;;;;;;22.47;38.17;100401.03;5054844;28;20241;-71
2022/03/30 09:00:09;;;;;;;26.05;12.57;;;;;;;22.55;38.25;100394.16;5054869;28;20021;-71
2022/03/30 09:03:00;;;;;;;21.73;12.27;;;;;;;23.11;38.15;100400.72;5055187;28;20029;-71
2022/03/30 09:05:46;;;;;;;21.67;12.02;;;;;;;22.96;37.53;100399.19;5053758;28;20091;-72
2022/03/30 09:08:32;;;;;;;21.45;13.07;;;;;;;23.04;37.50;100395.00;5054346;28;20109;-70
2022/03/30 09:11:19;;;;;;;20.70;13.02;;;;;;;22.93;37.56;100400.25;5054160;28;20468;-71
2022/03/30 09:14:06;;;;;;;21.58;12.10;;;;;;;23.03;37.73;100387.91;5053583;28;20064;-71
2022/03/30 09:16:55;;;;;;;23.52;13.18;;;;;;;23.05;37.82;100385.13;5055028;28;20029;-71
2022/03/30 09:19:41;;;;;;;25.17;13.05;;;;;;;23.15;37.79;100388.84;5054085;28;20116;-71
2022/03/30 09:22:28;;;;;;;25.70;14.80;;;;;;;22.97;37.74;100382.19;5053672;28;20025;-71
2022/03/30 09:25:15;;;;;;;24.30;13.80;;;;;;;22.79;38.06;100391.56;5054090;28;20025;-71
2022/03/30 09:28:02;;;;;;;23.75;13.57;;;;;;;23.23;37.90;100381.97;5056828;28;20052;-69
2022/03/30 09:30:49;;;;;;;22.02;12.63;;;;;;;22.60;38.88;100386.69;5054510;28;20021;-71
2022/03/30 09:33:37;;;;;;;24.35;13.13;;;;;;;22.86;38.89;100374.09;5054979;28;20454;-71
2022/03/30 09:36:30;;;;;;;20.77;13.25;;;;;;;23.09;38.77;100373.25;5053730;28;20039;-72
2022/03/30 09:39:36;;;;;;;21.17;13.07;;;;;;;23.17;38.88;100357.50;5054844;28;20032;-72
2022/03/30 09:42:27;;;;;;;23.17;13.45;;;;;;;22.96;39.72;100356.44;5053765;28;20064;-71
2022/03/30 09:45:26;;;;;;;26.85;13.60;;;;;;;23.36;38.58;100355.19;5053451;28;20029;-72
2022/03/30 09:48:18;;;;;;;22.60;12.90;;;;;;;23.27;38.93;100340.69;5052824;28;20112;-73
2022/03/30 09:51:06;;;;;;;21.92;13.30;;;;;;;22.99;39.60;100337.50;5055779;28;20108;-73
2022/03/30 09:53:52;;;;;;;21.70;14.95;;;;;;;23.03;38.83;100347.00;5053628;28;20029;-71
2022/03/30 09:56:43;;;;;;;30.58;14.80;;;;;;;23.17;38.47;100341.47;5053498;28;20098;-72
2022/03/30 09:59:31;;;;;;;21.90;13.93;;;;;;;23.40;37.57;100328.09;5054224;28;20025;-72
2022/03/30 10:02:17;;;;;;;25.40;14.27;;;;;;;23.19;37.84;100335.03;5057400;28;20047;-71
2022/03/30 10:05:04;;;;;;;21.63;13.00;;;;;;;23.10;38.84;100326.84;5057594;28;20028;-72
2022/03/30 10:07:50;;;;;;;20.10;13.07;;;;;;;23.32;37.65;100324.31;5056797;28;20088;-72
2022/03/30 10:10:36;;;;;;;24.33;13.45;;;;;;;23.06;38.12;100331.56;5056929;28;20107;-72
2022/03/30 10:13:24;;;;;;;23.70;13.50;;;;;;;23.38;37.26;100319.34;5058080;28;20056;-72
2022/03/30 10:16:10;;;;;;;24.48;13.20;;;;;;;23.46;36.13;100320.59;5058194;28;20179;-72
2022/03/30 10:18:57;;;;;;;26.80;13.57;;;;;;;23.17;36.57;100322.75;5055975;28;20025;-70
2022/03/30 10:21:54;;;;;;;27.35;14.40;;;;;;;23.35;36.68;100313.38;5056799;28;20063;-70
2022/03/30 10:24:58;;;;;;;25.15;13.65;;;;;;;23.93;35.82;100315.09;5057075;28;20025;-71
2022/03/30 10:27:53;;;;;;;24.17;13.63;;;;;;;23.41;35.69;100312.91;5057110;28;20056;-70
2022/03/30 10:30:43;;;;;;;25.45;14.20;;;;;;;24.02;34.64;100315.22;5056851;28;20037;-72
2022/03/30 10:33:33;;;;;;;21.40;13.20;;;;;;;24.19;34.54;100319.25;5057792;28;20147;-72
2022/03/30 10:36:20;;;;;;;24.00;13.80;;;;;;;23.81;35.12;100311.53;5057038;28;20053;-70
2022/03/30 10:39:15;;;;;;;25.05;13.68;;;;;;;24.28;34.85;100308.66;5056596;28;20025;-72
2022/03/30 10:42:05;;;;;;;25.20;12.98;;;;;;;24.24;34.44;100301.84;5056095;28;20365;-72
2022/03/30 10:44:57;;;;;;;24.55;13.20;;;;;;;23.93;34.66;100296.34;5056318;28;20025;-71
2022/03/30 10:48:11;;;;;;;26.52;14.50;;;;;;;24.02;34.32;100301.84;5056056;28;20025;-71
2022/03/30 10:51:06;;;;;;;36.00;15.30;;;;;;;24.14;33.95;100300.88;5056279;28;20147;-71
2022/03/30 10:53:52;;;;;;;29.77;14.38;;;;;;;24.39;33.16;100297.91;5055710;28;20035;-71
2022/03/30 10:56:48;;;;;;;21.70;14.27;;;;;;;24.65;32.82;100288.66;5057732;28;20021;-71
2022/03/30 10:59:34;;;;;;;24.00;14.50;;;;;;;24.48;33.11;100290.97;5057016;28;20112;-71
2022/03/30 11:02:20;;;;;;;19.85;13.95;;;;;;;24.48;33.40;100290.97;5055896;28;20029;-73
2022/03/30 11:05:10;;;;;;;22.33;14.98;;;;;;;24.10;33.92;100274.47;5055919;28;20052;-73
2022/03/30 11:07:56;;;;;;;24.60;14.82;;;;;;;24.13;34.17;100277.75;5057041;28;20029;-73
2022/03/30 11:10:47;;;;;;;28.58;15.85;;;;;;;24.19;34.01;100271.06;5056713;28;20404;-73
2022/03/30 11:13:33;;;;;;;28.80;14.90;;;;;;;24.11;34.32;100284.22;5055937;28;20389;-72
2022/03/30 11:16:19;;;;;;;22.65;15.20;;;;;;;24.15;34.00;100282.97;5056406;28;20017;-74
2022/03/30 11:19:05;;;;;;;27.48;15.75;;;;;;;24.29;33.82;100270.19;5055761;28;20047;-72
2022/03/30 11:22:12;;;;;;;25.08;14.65;;;;;;;23.88;34.87;100261.06;5056189;28;20427;-72
2022/03/30 11:25:19;;;;;;;25.83;15.18;;;;;;;24.49;33.95;100256.03;5055619;28;20104;-72
2022/03/30 11:28:07;;;;;;;23.55;14.43;;;;;;;24.23;34.05;100262.63;5055377;28;20040;-71
2022/03/30 11:30:53;;;;;;;21.08;13.10;;;;;;;24.32;33.03;100263.72;5055569;28;20394;-72
2022/03/30 11:33:38;;;;;;;21.02;12.75;;;;;;;24.28;33.60;100265.81;5055363;28;20457;-72
2022/03/30 11:36:24;;;;;;;22.00;13.30;;;;;;;24.46;33.71;100266.13;5056508;28;20025;-72
2022/03/30 11:39:14;;;;;;;19.60;12.38;;;;;;;24.59;33.87;100264.16;5056589;28;20171;-72
2022/03/30 11:42:00;;;;;;;25.13;13.13;;;;;;;24.65;33.62;100258.31;5055796;28;20033;-72
2022/03/30 11:47:56;;;;;;;21.90;13.35;;;;;;;25.75;32.32;100257.75;5060332;28;20033;-73
2022/03/30 11:50:46;;;;;;;23.45;12.82;;;;;;;25.36;31.12;100245.13;5055512;28;20029;-73
2022/03/30 11:53:32;;;;;;;20.92;12.55;;;;;;;25.09;31.61;100239.38;5054763;28;20024;-74
2022/03/30 11:56:18;;;;;;;21.00;12.40;;;;;;;25.80;31.02;100245.63;5055682;28;20414;-74
2022/03/30 11:59:04;;;;;;;22.17;14.13;;;;;;;25.72;31.43;100237.41;5055873;28;20029;-73
2022/03/30 12:01:53;;;;;;;23.45;13.45;;;;;;;26.13;30.92;100240.03;5056690;28;20033;-74
2022/03/30 12:04:46;;;;;;;22.08;12.93;;;;;;;26.06;30.66;100233.50;5054680;28;20365;-74
2022/03/30 12:07:37;;;;;;;18.85;12.25;;;;;;;25.32;31.53;100215.00;5054841;28;20025;-75
2022/03/30 12:10:31;;;;;;;18.88;12.05;;;;;;;25.66;30.87;100213.78;5055920;28;20484;-77
2022/03/30 12:13:22;;;;;;;19.48;12.57;;;;;;;25.70;31.23;100211.69;5054295;28;20465;-74
2022/03/30 12:16:08;;;;;;;23.63;13.68;;;;;;;24.86;31.44;100202.94;5054173;28;20503;-76
2022/03/30 12:18:56;;;;;;;22.73;13.75;;;;;;;24.88;31.28;100192.94;5054544;28;20120;-70
2022/03/30 12:21:42;;;;;;;20.88;13.68;;;;;;;25.27;31.76;100184.19;5053625;28;20036;-71
2022/03/30 12:24:32;;;;;;;25.52;13.77;;;;;;;25.84;30.80;100195.22;5054463;28;20111;-71
2022/03/30 12:27:18;;;;;;;22.80;13.75;;;;;;;25.02;31.05;100193.47;5054892;28;20090;-73
2022/03/30 12:30:04;;;;;;;23.40;14.07;;;;;;;25.91;30.01;100193.69;5053741;28;20032;-73
2022/03/30 12:32:50;;;;;;;21.73;13.40;;;;;;;25.68;30.65;100187.66;5054094;28;20029;-73
2022/03/30 12:35:38;;;;;;;22.90;13.85;;;;;;;25.67;30.79;100179.75;5054049;28;20025;-73
2022/03/30 12:38:24;;;;;;;21.17;13.88;;;;;;;25.87;30.44;100182.38;5053384;28;20033;-74
2022/03/30 12:41:11;;;;;;;21.40;14.07;;;;;;;24.97;31.00;100176.94;5053737;28;20052;-74
2022/03/30 12:44:02;;;;;;;21.92;14.40;;;;;;;25.35;31.12;100173.69;5053671;28;20040;-73
2022/03/30 12:46:51;;;;;;;20.98;13.75;;;;;;;25.60;30.38;100173.25;5052563;28;20347;-74
2022/03/30 12:49:39;;;;;;;20.98;14.13;;;;;;;25.41;30.96;100167.78;5054141;28;20036;-74
2022/03/30 12:52:32;;;;;;;20.58;14.48;;;;;;;25.02;31.42;100166.66;5053001;28;20408;-73